To NAV CANADA Home Page Login to a new session Search on AWWS site Feedback and Comments Disclaimer Vers la page française équivalente Tips FAQ What's new on the site To the Forecasts and Observations / NOTAM section To "File a Flight Plan" website Publications and other links Update of the User's profile FIC Telephone Numbers My Weather Data Folder Route Weather Data Regional Weather Data Local Weather Data To the Forecasts and Observations / NOTAM section
Request Generated 01/17/2017 at 04:44:04 UTC . Weather information available at that time is displayed.

METAR/TAF

SARNIA (CHRIS HADFIELD)/ON    (show WxCam)

METAR CYZR 170400Z AUTO 12005KT 4SM -SN BKN036 OVC065 M00/M01 A3015
RMK SLP221=
METAR CYZR 170300Z AUTO 14007KT 4SM -SN OVC044 M00/M01 A3018 RMK
SLP230=
SPECI CYZR 170235Z AUTO 13006KT 4SM -SN OVC044 M00/M01 A3019 RMK
SLP234=
SPECI CYZR 170227Z AUTO 13006KT 4SM -RASN OVC044 M00/M01 A3020 RMK
SLP236=
METAR CYZR 170200Z AUTO 13005KT 3SM -RA BR OVC044 00/M01 A3021 RMK
SLP240=

*** REMARK        : Forecast period has ended; this was the last TAF issued
*** REMARQUE : La période de prévision est échue; ceci était le dernier TAF qui a été émis
TAF AMD CYZR 170105Z 1701/1703 12005KT 6SM -RA BR OVC040 TEMPO
1701/1703 2SM -RA BR OVC020 PROB30 1701/1703 3SM -FZRA BR
RMK FCST BASED ON AUTO OBS. NXT FCST WILL BE ISSUED AT 171245Z=
Your time UTC time
Weather data provided by Environment Canada and NAV CANADA